sensor_id;sensor_type;location;lat;lon;timestamp;temperature;humidity
53065;DHT22;38948;48.376;-4.312;2022-12-29T00:01:30;18.50;76.00
53065;DHT22;38948;48.376;-4.312;2022-12-29T00:03:56;18.60;75.90
53065;DHT22;38948;48.376;-4.312;2022-12-29T00:06:22;18.50;76.00
53065;DHT22;38948;48.376;-4.312;2022-12-29T00:08:49;18.60;75.90
53065;DHT22;38948;48.376;-4.312;2022-12-29T00:11:22;18.50;75.80
53065;DHT22;38948;48.376;-4.312;2022-12-29T00:13:49;18.50;75.70
53065;DHT22;38948;48.376;-4.312;2022-12-29T00:16:34;18.50;75.70
53065;DHT22;38948;48.376;-4.312;2022-12-29T00:19:01;18.50;75.60
53065;DHT22;38948;48.376;-4.312;2022-12-29T00:21:27;18.50;75.60
53065;DHT22;38948;48.376;-4.312;2022-12-29T00:24:21;18.50;75.60
53065;DHT22;38948;48.376;-4.312;2022-12-29T00:29:44;18.50;75.60
53065;DHT22;38948;48.376;-4.312;2022-12-29T00:32:28;18.50;75.50
53065;DHT22;38948;48.376;-4.312;2022-12-29T00:35:18;18.50;75.40
53065;DHT22;38948;48.376;-4.312;2022-12-29T00:37:47;18.50;75.40
53065;DHT22;38948;48.376;-4.312;2022-12-29T00:40:32;18.40;75.60
53065;DHT22;38948;48.376;-4.312;2022-12-29T00:43:16;18.40;75.50
53065;DHT22;38948;48.376;-4.312;2022-12-29T00:46:00;18.50;75.40
53065;DHT22;38948;48.376;-4.312;2022-12-29T00:48:26;18.40;75.50
53065;DHT22;38948;48.376;-4.312;2022-12-29T00:51:10;18.40;75.50
53065;DHT22;38948;48.376;-4.312;2022-12-29T00:53:36;18.40;75.60
53065;DHT22;38948;48.376;-4.312;2022-12-29T00:56:02;18.40;75.40
53065;DHT22;38948;48.376;-4.312;2022-12-29T00:58:29;18.40;75.40
53065;DHT22;38948;48.376;-4.312;2022-12-29T01:01:21;18.40;75.30
53065;DHT22;38948;48.376;-4.312;2022-12-29T01:03:47;18.40;75.30
53065;DHT22;38948;48.376;-4.312;2022-12-29T01:06:13;18.40;75.30
53065;DHT22;38948;48.376;-4.312;2022-12-29T01:08:39;18.40;75.20
53065;DHT22;38948;48.376;-4.312;2022-12-29T01:11:09;18.40;75.10
53065;DHT22;38948;48.376;-4.312;2022-12-29T01:13:36;18.40;75.10
53065;DHT22;38948;48.376;-4.312;2022-12-29T01:16:06;18.30;75.10
53065;DHT22;38948;48.376;-4.312;2022-12-29T01:18:33;18.30;75.00
53065;DHT22;38948;48.376;-4.312;2022-12-29T01:21:03;18.30;74.90
53065;DHT22;38948;48.376;-4.312;2022-12-29T01:23:30;18.30;75.00
53065;DHT22;38948;48.376;-4.312;2022-12-29T01:25:56;18.30;74.90
53065;DHT22;38948;48.376;-4.312;2022-12-29T01:28:23;18.30;74.90
53065;DHT22;38948;48.376;-4.312;2022-12-29T01:30:49;18.30;74.90
53065;DHT22;38948;48.376;-4.312;2022-12-29T01:33:15;18.30;75.00
53065;DHT22;38948;48.376;-4.312;2022-12-29T01:35:40;18.30;75.00
53065;DHT22;38948;48.376;-4.312;2022-12-29T01:38:06;18.30;74.90
53065;DHT22;38948;48.376;-4.312;2022-12-29T01:40:33;18.20;75.00
53065;DHT22;38948;48.376;-4.312;2022-12-29T01:42:59;18.20;75.00
53065;DHT22;38948;48.376;-4.312;2022-12-29T01:45:24;18.20;75.10
53065;DHT22;38948;48.376;-4.312;2022-12-29T01:48:00;18.20;74.90
53065;DHT22;38948;48.376;-4.312;2022-12-29T01:50:38;18.20;74.90
53065;DHT22;38948;48.376;-4.312;2022-12-29T01:55:56;18.20;74.80
53065;DHT22;38948;48.376;-4.312;2022-12-29T01:58:22;18.20;74.90
53065;DHT22;38948;48.376;-4.312;2022-12-29T02:00:50;18.20;74.80
53065;DHT22;38948;48.376;-4.312;2022-12-29T02:03:17;18.20;74.80
53065;DHT22;38948;48.376;-4.312;2022-12-29T02:08:28;18.10;74.90
53065;DHT22;38948;48.376;-4.312;2022-12-29T02:10:56;18.10;74.90
53065;DHT22;38948;48.376;-4.312;2022-12-29T02:13:27;18.10;74.80
53065;DHT22;38948;48.376;-4.312;2022-12-29T02:25:41;18.00;74.90
53065;DHT22;38948;48.376;-4.312;2022-12-29T02:36:06;18.00;74.80
53065;DHT22;38948;48.376;-4.312;2022-12-29T02:41:38;17.90;74.90
53065;DHT22;38948;48.376;-4.312;2022-12-29T02:46:47;17.90;74.80
53065;DHT22;38948;48.376;-4.312;2022-12-29T02:49:30;17.90;74.60
53065;DHT22;38948;48.376;-4.312;2022-12-29T02:52:05;17.90;74.70
53065;DHT22;38948;48.376;-4.312;2022-12-29T02:54:32;17.90;74.70
53065;DHT22;38948;48.376;-4.312;2022-12-29T02:59:56;17.90;74.70
53065;DHT22;38948;48.376;-4.312;2022-12-29T03:02:50;17.90;74.60
53065;DHT22;38948;48.376;-4.312;2022-12-29T03:08:13;17.90;74.70
53065;DHT22;38948;48.376;-4.312;2022-12-29T03:11:09;17.90;74.50
53065;DHT22;38948;48.376;-4.312;2022-12-29T03:14:02;17.90;74.60
53065;DHT22;38948;48.376;-4.312;2022-12-29T03:16:52;17.80;74.70
53065;DHT22;38948;48.376;-4.312;2022-12-29T03:19:31;17.80;74.60
53065;DHT22;38948;48.376;-4.312;2022-12-29T03:22:01;17.80;74.70
53065;DHT22;38948;48.376;-4.312;2022-12-29T03:24:54;17.80;74.50
53065;DHT22;38948;48.376;-4.312;2022-12-29T03:27:32;17.80;74.70
53065;DHT22;38948;48.376;-4.312;2022-12-29T03:30:02;17.80;74.60
53065;DHT22;38948;48.376;-4.312;2022-12-29T03:32:36;17.80;74.60
53065;DHT22;38948;48.376;-4.312;2022-12-29T03:35:04;17.80;74.60
53065;DHT22;38948;48.376;-4.312;2022-12-29T03:37:35;17.80;74.60
53065;DHT22;38948;48.376;-4.312;2022-12-29T03:40:03;17.80;74.40
53065;DHT22;38948;48.376;-4.312;2022-12-29T03:42:32;17.80;74.50
53065;DHT22;38948;48.376;-4.312;2022-12-29T03:44:59;17.70;74.60
53065;DHT22;38948;48.376;-4.312;2022-12-29T03:47:25;17.70;74.50
53065;DHT22;38948;48.376;-4.312;2022-12-29T03:49:51;17.70;74.40
53065;DHT22;38948;48.376;-4.312;2022-12-29T03:52:17;17.70;74.40
53065;DHT22;38948;48.376;-4.312;2022-12-29T03:54:43;17.70;74.20
53065;DHT22;38948;48.376;-4.312;2022-12-29T03:57:10;17.70;74.20
53065;DHT22;38948;48.376;-4.312;2022-12-29T03:59:36;17.70;74.30
53065;DHT22;38948;48.376;-4.312;2022-12-29T04:02:02;17.70;74.10
53065;DHT22;38948;48.376;-4.312;2022-12-29T04:04:27;17.70;74.20
53065;DHT22;38948;48.376;-4.312;2022-12-29T04:06:53;17.60;74.20
53065;DHT22;38948;48.376;-4.312;2022-12-29T04:09:19;17.60;74.10
53065;DHT22;38948;48.376;-4.312;2022-12-29T04:11:45;17.70;74.10
53065;DHT22;38948;48.376;-4.312;2022-12-29T04:14:10;17.60;74.10
53065;DHT22;38948;48.376;-4.312;2022-12-29T04:16:36;17.60;74.20
53065;DHT22;38948;48.376;-4.312;2022-12-29T04:19:07;17.60;74.10
53065;DHT22;38948;48.376;-4.312;2022-12-29T04:21:33;17.60;74.10
53065;DHT22;38948;48.376;-4.312;2022-12-29T04:23:59;17.60;74.20
53065;DHT22;38948;48.376;-4.312;2022-12-29T04:26:25;17.60;74.10
53065;DHT22;38948;48.376;-4.312;2022-12-29T04:28:52;17.60;74.10
53065;DHT22;38948;48.376;-4.312;2022-12-29T04:31:18;17.60;74.10
53065;DHT22;38948;48.376;-4.312;2022-12-29T04:33:43;17.50;74.10
53065;DHT22;38948;48.376;-4.312;2022-12-29T04:36:09;17.60;73.90
53065;DHT22;38948;48.376;-4.312;2022-12-29T04:38:35;17.50;74.00
53065;DHT22;38948;48.376;-4.312;2022-12-29T04:41:02;17.50;74.00
53065;DHT22;38948;48.376;-4.312;2022-12-29T04:43:31;17.50;74.00
53065;DHT22;38948;48.376;-4.312;2022-12-29T04:45:56;17.50;74.10
53065;DHT22;38948;48.376;-4.312;2022-12-29T04:48:22;17.50;74.00
53065;DHT22;38948;48.376;-4.312;2022-12-29T04:50:48;17.50;74.00
53065;DHT22;38948;48.376;-4.312;2022-12-29T04:53:15;17.50;74.00
53065;DHT22;38948;48.376;-4.312;2022-12-29T04:55:43;17.50;74.00
53065;DHT22;38948;48.376;-4.312;2022-12-29T04:58:10;17.50;73.90
53065;DHT22;38948;48.376;-4.312;2022-12-29T05:00:36;17.50;74.10
53065;DHT22;38948;48.376;-4.312;2022-12-29T05:03:02;17.40;74.00
53065;DHT22;38948;48.376;-4.312;2022-12-29T05:05:27;17.40;74.00
53065;DHT22;38948;48.376;-4.312;2022-12-29T05:07:53;17.40;74.00
53065;DHT22;38948;48.376;-4.312;2022-12-29T05:10:19;17.50;73.90
53065;DHT22;38948;48.376;-4.312;2022-12-29T05:12:45;17.50;74.00
53065;DHT22;38948;48.376;-4.312;2022-12-29T05:15:11;17.40;74.00
53065;DHT22;38948;48.376;-4.312;2022-12-29T05:17:37;17.40;73.90
53065;DHT22;38948;48.376;-4.312;2022-12-29T05:20:04;17.40;73.90
53065;DHT22;38948;48.376;-4.312;2022-12-29T05:22:30;17.40;73.80
53065;DHT22;38948;48.376;-4.312;2022-12-29T05:24:56;17.40;73.80
53065;DHT22;38948;48.376;-4.312;2022-12-29T05:27:22;17.40;73.80
53065;DHT22;38948;48.376;-4.312;2022-12-29T05:29:47;17.40;73.80
53065;DHT22;38948;48.376;-4.312;2022-12-29T05:32:13;17.40;73.80
53065;DHT22;38948;48.376;-4.312;2022-12-29T05:34:39;17.40;73.80
53065;DHT22;38948;48.376;-4.312;2022-12-29T05:37:04;17.30;73.80
53065;DHT22;38948;48.376;-4.312;2022-12-29T05:39:30;17.30;73.80
53065;DHT22;38948;48.376;-4.312;2022-12-29T05:41:56;17.40;73.80
53065;DHT22;38948;48.376;-4.312;2022-12-29T05:44:22;17.30;73.80
53065;DHT22;38948;48.376;-4.312;2022-12-29T05:46:47;17.30;73.90
53065;DHT22;38948;48.376;-4.312;2022-12-29T05:49:13;17.30;73.80
53065;DHT22;38948;48.376;-4.312;2022-12-29T05:51:39;17.30;73.80
53065;DHT22;38948;48.376;-4.312;2022-12-29T05:54:05;17.30;73.70
53065;DHT22;38948;48.376;-4.312;2022-12-29T05:56:30;17.30;73.80
53065;DHT22;38948;48.376;-4.312;2022-12-29T05:58:56;17.30;73.90
53065;DHT22;38948;48.376;-4.312;2022-12-29T06:01:22;17.30;73.80
53065;DHT22;38948;48.376;-4.312;2022-12-29T06:03:48;17.20;73.80
53065;DHT22;38948;48.376;-4.312;2022-12-29T06:06:16;17.20;73.80
53065;DHT22;38948;48.376;-4.312;2022-12-29T06:08:42;17.30;73.80
53065;DHT22;38948;48.376;-4.312;2022-12-29T06:11:08;17.20;73.80
53065;DHT22;38948;48.376;-4.312;2022-12-29T06:13:34;17.20;73.90
53065;DHT22;38948;48.376;-4.312;2022-12-29T06:15:59;17.20;73.80
53065;DHT22;38948;48.376;-4.312;2022-12-29T06:18:25;17.20;73.80
53065;DHT22;38948;48.376;-4.312;2022-12-29T06:20:51;17.20;73.80
53065;DHT22;38948;48.376;-4.312;2022-12-29T06:23:16;17.20;73.80
53065;DHT22;38948;48.376;-4.312;2022-12-29T06:25:44;17.20;73.70
53065;DHT22;38948;48.376;-4.312;2022-12-29T06:28:09;17.20;73.80
53065;DHT22;38948;48.376;-4.312;2022-12-29T06:30:36;17.20;73.70
53065;DHT22;38948;48.376;-4.312;2022-12-29T06:33:02;17.20;73.70
53065;DHT22;38948;48.376;-4.312;2022-12-29T06:35:27;17.20;73.70
53065;DHT22;38948;48.376;-4.312;2022-12-29T06:37:53;17.20;73.70
53065;DHT22;38948;48.376;-4.312;2022-12-29T06:40:19;17.20;73.60
53065;DHT22;38948;48.376;-4.312;2022-12-29T06:42:45;17.10;73.70
53065;DHT22;38948;48.376;-4.312;2022-12-29T06:45:11;17.10;73.60
53065;DHT22;38948;48.376;-4.312;2022-12-29T06:47:37;17.10;73.50
53065;DHT22;38948;48.376;-4.312;2022-12-29T06:50:03;17.20;73.50
53065;DHT22;38948;48.376;-4.312;2022-12-29T06:52:28;17.20;73.50
53065;DHT22;38948;48.376;-4.312;2022-12-29T06:54:55;17.20;73.50
53065;DHT22;38948;48.376;-4.312;2022-12-29T06:57:21;17.20;73.80
53065;DHT22;38948;48.376;-4.312;2022-12-29T06:59:47;17.20;75.40
53065;DHT22;38948;48.376;-4.312;2022-12-29T07:02:13;17.30;75.60
53065;DHT22;38948;48.376;-4.312;2022-12-29T07:04:44;17.30;75.70
53065;DHT22;38948;48.376;-4.312;2022-12-29T07:07:10;17.30;75.50
53065;DHT22;38948;48.376;-4.312;2022-12-29T07:09:36;17.20;75.60
53065;DHT22;38948;48.376;-4.312;2022-12-29T07:12:02;17.30;75.80
53065;DHT22;38948;48.376;-4.312;2022-12-29T07:14:28;17.30;75.60
53065;DHT22;38948;48.376;-4.312;2022-12-29T07:16:53;17.20;75.80
53065;DHT22;38948;48.376;-4.312;2022-12-29T07:19:19;17.30;75.70
53065;DHT22;38948;48.376;-4.312;2022-12-29T07:21:45;17.30;75.60
53065;DHT22;38948;48.376;-4.312;2022-12-29T07:24:11;17.20;75.70
53065;DHT22;38948;48.376;-4.312;2022-12-29T07:26:37;17.30;75.50
53065;DHT22;38948;48.376;-4.312;2022-12-29T07:29:03;17.30;75.60
53065;DHT22;38948;48.376;-4.312;2022-12-29T07:31:29;17.30;75.70
53065;DHT22;38948;48.376;-4.312;2022-12-29T07:33:55;17.30;75.60
53065;DHT22;38948;48.376;-4.312;2022-12-29T07:36:21;17.30;75.60
53065;DHT22;38948;48.376;-4.312;2022-12-29T07:38:47;17.30;75.70
53065;DHT22;38948;48.376;-4.312;2022-12-29T07:41:12;17.30;75.60
53065;DHT22;38948;48.376;-4.312;2022-12-29T07:43:38;17.30;75.50
53065;DHT22;38948;48.376;-4.312;2022-12-29T07:46:04;17.30;75.60
53065;DHT22;38948;48.376;-4.312;2022-12-29T07:48:30;17.30;75.50
53065;DHT22;38948;48.376;-4.312;2022-12-29T07:50:55;17.30;75.60
53065;DHT22;38948;48.376;-4.312;2022-12-29T07:53:21;17.30;75.50
53065;DHT22;38948;48.376;-4.312;2022-12-29T07:55:47;17.30;75.40
53065;DHT22;38948;48.376;-4.312;2022-12-29T07:58:12;17.30;75.40
53065;DHT22;38948;48.376;-4.312;2022-12-29T08:00:39;17.40;75.70
53065;DHT22;38948;48.376;-4.312;2022-12-29T08:03:04;17.40;75.40
53065;DHT22;38948;48.376;-4.312;2022-12-29T08:05:31;17.40;75.40
53065;DHT22;38948;48.376;-4.312;2022-12-29T08:07:57;17.40;75.30
53065;DHT22;38948;48.376;-4.312;2022-12-29T08:10:24;17.40;75.20
53065;DHT22;38948;48.376;-4.312;2022-12-29T08:12:49;17.40;75.30
53065;DHT22;38948;48.376;-4.312;2022-12-29T08:15:15;17.40;75.10
53065;DHT22;38948;48.376;-4.312;2022-12-29T08:17:41;17.40;75.40
53065;DHT22;38948;48.376;-4.312;2022-12-29T08:20:07;17.50;75.20
53065;DHT22;38948;48.376;-4.312;2022-12-29T08:22:33;17.50;75.20
53065;DHT22;38948;48.376;-4.312;2022-12-29T08:24:59;17.50;75.20
53065;DHT22;38948;48.376;-4.312;2022-12-29T08:27:26;17.50;75.60
53065;DHT22;38948;48.376;-4.312;2022-12-29T08:29:52;17.50;75.60
53065;DHT22;38948;48.376;-4.312;2022-12-29T08:32:18;17.50;75.50
53065;DHT22;38948;48.376;-4.312;2022-12-29T08:34:44;17.50;75.60
53065;DHT22;38948;48.376;-4.312;2022-12-29T08:37:10;17.60;75.60
53065;DHT22;38948;48.376;-4.312;2022-12-29T08:39:36;17.70;75.60
53065;DHT22;38948;48.376;-4.312;2022-12-29T08:42:02;17.70;75.60
53065;DHT22;38948;48.376;-4.312;2022-12-29T08:44:27;17.60;75.60
53065;DHT22;38948;48.376;-4.312;2022-12-29T08:46:53;17.60;75.40
53065;DHT22;38948;48.376;-4.312;2022-12-29T08:49:19;17.70;75.60
53065;DHT22;38948;48.376;-4.312;2022-12-29T08:51:44;17.70;75.30
53065;DHT22;38948;48.376;-4.312;2022-12-29T08:54:10;17.70;75.20
53065;DHT22;38948;48.376;-4.312;2022-12-29T08:56:36;17.80;75.10
53065;DHT22;38948;48.376;-4.312;2022-12-29T08:59:02;17.80;74.80
53065;DHT22;38948;48.376;-4.312;2022-12-29T09:01:27;17.80;74.80
53065;DHT22;38948;48.376;-4.312;2022-12-29T09:03:53;17.90;74.70
53065;DHT22;38948;48.376;-4.312;2022-12-29T09:06:20;17.90;74.60
53065;DHT22;38948;48.376;-4.312;2022-12-29T09:08:46;17.90;74.60
53065;DHT22;38948;48.376;-4.312;2022-12-29T09:11:21;17.90;74.60
53065;DHT22;38948;48.376;-4.312;2022-12-29T09:13:47;17.90;74.40
53065;DHT22;38948;48.376;-4.312;2022-12-29T09:16:15;18.00;74.30
53065;DHT22;38948;48.376;-4.312;2022-12-29T09:18:42;18.10;74.20
53065;DHT22;38948;48.376;-4.312;2022-12-29T09:21:10;18.10;74.20
53065;DHT22;38948;48.376;-4.312;2022-12-29T09:23:36;18.20;74.70
53065;DHT22;38948;48.376;-4.312;2022-12-29T09:26:02;18.20;75.00
53065;DHT22;38948;48.376;-4.312;2022-12-29T09:28:28;18.20;74.90
53065;DHT22;38948;48.376;-4.312;2022-12-29T09:30:55;18.30;74.80
53065;DHT22;38948;48.376;-4.312;2022-12-29T09:33:22;18.40;74.50
53065;DHT22;38948;48.376;-4.312;2022-12-29T09:35:53;18.40;80.00
53065;DHT22;38948;48.376;-4.312;2022-12-29T09:38:19;18.40;79.00
53065;DHT22;38948;48.376;-4.312;2022-12-29T09:40:53;18.40;77.80
53065;DHT22;38948;48.376;-4.312;2022-12-29T09:46:23;18.30;76.90
53065;DHT22;38948;48.376;-4.312;2022-12-29T09:51:23;18.30;76.30
53065;DHT22;38948;48.376;-4.312;2022-12-29T09:54:04;18.30;76.10
53065;DHT22;38948;48.376;-4.312;2022-12-29T09:56:39;18.30;75.90
53065;DHT22;38948;48.376;-4.312;2022-12-29T09:59:13;18.30;75.70
53065;DHT22;38948;48.376;-4.312;2022-12-29T10:04:12;18.30;75.50
53065;DHT22;38948;48.376;-4.312;2022-12-29T10:07:02;18.30;75.30
53065;DHT22;38948;48.376;-4.312;2022-12-29T10:20:38;18.50;75.00
53065;DHT22;38948;48.376;-4.312;2022-12-29T10:25:58;18.50;74.40
53065;DHT22;38948;48.376;-4.312;2022-12-29T10:28:39;18.60;74.60
53065;DHT22;38948;48.376;-4.312;2022-12-29T10:31:17;18.60;74.90
53065;DHT22;38948;48.376;-4.312;2022-12-29T10:33:50;18.60;74.60
53065;DHT22;38948;48.376;-4.312;2022-12-29T10:36:55;18.50;74.80
53065;DHT22;38948;48.376;-4.312;2022-12-29T10:42:42;18.60;74.80
53065;DHT22;38948;48.376;-4.312;2022-12-29T10:45:14;18.50;74.80
53065;DHT22;38948;48.376;-4.312;2022-12-29T10:47:57;18.50;74.90
53065;DHT22;38948;48.376;-4.312;2022-12-29T10:50:25;18.50;74.80
53065;DHT22;38948;48.376;-4.312;2022-12-29T10:52:53;18.50;74.90
53065;DHT22;38948;48.376;-4.312;2022-12-29T10:55:23;18.50;74.70
53065;DHT22;38948;48.376;-4.312;2022-12-29T10:57:55;18.50;74.80
53065;DHT22;38948;48.376;-4.312;2022-12-29T11:00:24;18.50;74.80
53065;DHT22;38948;48.376;-4.312;2022-12-29T11:03:34;18.60;75.10
53065;DHT22;38948;48.376;-4.312;2022-12-29T11:06:08;18.60;74.90
53065;DHT22;38948;48.376;-4.312;2022-12-29T11:08:42;18.70;77.00
53065;DHT22;38948;48.376;-4.312;2022-12-29T11:11:10;18.70;77.00
53065;DHT22;38948;48.376;-4.312;2022-12-29T11:14:18;18.70;77.90
53065;DHT22;38948;48.376;-4.312;2022-12-29T11:16:42;18.80;77.60
53065;DHT22;38948;48.376;-4.312;2022-12-29T11:19:21;18.90;77.70
53065;DHT22;38948;48.376;-4.312;2022-12-29T11:21:47;18.90;78.00
53065;DHT22;38948;48.376;-4.312;2022-12-29T11:24:27;18.90;78.10
53065;DHT22;38948;48.376;-4.312;2022-12-29T11:26:55;18.90;78.00
53065;DHT22;38948;48.376;-4.312;2022-12-29T11:29:39;18.90;77.80
53065;DHT22;38948;48.376;-4.312;2022-12-29T11:32:27;19.00;77.30
53065;DHT22;38948;48.376;-4.312;2022-12-29T11:34:56;19.00;77.10
53065;DHT22;38948;48.376;-4.312;2022-12-29T11:37:36;19.00;76.90
53065;DHT22;38948;48.376;-4.312;2022-12-29T11:40:06;19.00;76.70
53065;DHT22;38948;48.376;-4.312;2022-12-29T11:42:55;19.00;76.40
53065;DHT22;38948;48.376;-4.312;2022-12-29T11:45:24;19.00;76.50
53065;DHT22;38948;48.376;-4.312;2022-12-29T11:48:09;19.00;76.20
53065;DHT22;38948;48.376;-4.312;2022-12-29T11:50:40;18.90;75.90
53065;DHT22;38948;48.376;-4.312;2022-12-29T11:53:17;18.90;75.50
53065;DHT22;38948;48.376;-4.312;2022-12-29T11:56:12;18.90;75.90
53065;DHT22;38948;48.376;-4.312;2022-12-29T11:58:39;19.00;75.90
53065;DHT22;38948;48.376;-4.312;2022-12-29T12:01:44;19.00;75.60
53065;DHT22;38948;48.376;-4.312;2022-12-29T12:04:15;19.00;75.30
53065;DHT22;38948;48.376;-4.312;2022-12-29T12:09:57;19.00;75.10
53065;DHT22;38948;48.376;-4.312;2022-12-29T12:15:02;19.00;74.90
53065;DHT22;38948;48.376;-4.312;2022-12-29T12:23:11;19.00;74.80
53065;DHT22;38948;48.376;-4.312;2022-12-29T12:25:41;18.90;74.70
53065;DHT22;38948;48.376;-4.312;2022-12-29T12:31:17;18.90;74.80
53065;DHT22;38948;48.376;-4.312;2022-12-29T12:33:48;18.90;74.60
53065;DHT22;38948;48.376;-4.312;2022-12-29T12:48:04;18.90;74.60
53065;DHT22;38948;48.376;-4.312;2022-12-29T12:58:56;18.80;74.00
53065;DHT22;38948;48.376;-4.312;2022-12-29T13:01:42;18.80;74.10
53065;DHT22;38948;48.376;-4.312;2022-12-29T13:07:12;18.80;74.10
53065;DHT22;38948;48.376;-4.312;2022-12-29T13:15:23;18.80;74.10
53065;DHT22;38948;48.376;-4.312;2022-12-29T13:18:05;18.80;74.40
53065;DHT22;38948;48.376;-4.312;2022-12-29T13:21:01;18.80;74.30
53065;DHT22;38948;48.376;-4.312;2022-12-29T13:37:25;18.70;74.10
53065;DHT22;38948;48.376;-4.312;2022-12-29T13:40:02;18.70;74.00
53065;DHT22;38948;48.376;-4.312;2022-12-29T13:42:29;18.70;74.10
53065;DHT22;38948;48.376;-4.312;2022-12-29T13:45:06;18.70;74.10
53065;DHT22;38948;48.376;-4.312;2022-12-29T13:50:03;18.70;74.00
53065;DHT22;38948;48.376;-4.312;2022-12-29T13:57:50;18.70;74.10
53065;DHT22;38948;48.376;-4.312;2022-12-29T14:00:22;18.60;73.90
53065;DHT22;38948;48.376;-4.312;2022-12-29T14:03:15;18.60;74.00
53065;DHT22;38948;48.376;-4.312;2022-12-29T14:05:45;18.70;74.00
53065;DHT22;38948;48.376;-4.312;2022-12-29T14:08:17;18.60;73.90
53065;DHT22;38948;48.376;-4.312;2022-12-29T14:10:52;18.60;74.10
53065;DHT22;38948;48.376;-4.312;2022-12-29T14:13:22;18.60;74.00
53065;DHT22;38948;48.376;-4.312;2022-12-29T14:15:56;18.60;74.00
53065;DHT22;38948;48.376;-4.312;2022-12-29T14:18:28;18.60;74.00
53065;DHT22;38948;48.376;-4.312;2022-12-29T14:39:34;18.50;74.00
53065;DHT22;38948;48.376;-4.312;2022-12-29T14:44:32;18.50;73.90
53065;DHT22;38948;48.376;-4.312;2022-12-29T14:47:01;18.50;74.00
53065;DHT22;38948;48.376;-4.312;2022-12-29T14:49:38;18.50;74.00
53065;DHT22;38948;48.376;-4.312;2022-12-29T14:52:16;18.50;73.90
53065;DHT22;38948;48.376;-4.312;2022-12-29T14:54:50;18.50;73.80
53065;DHT22;38948;48.376;-4.312;2022-12-29T14:57:28;18.50;73.90
53065;DHT22;38948;48.376;-4.312;2022-12-29T15:00:17;18.50;74.00
53065;DHT22;38948;48.376;-4.312;2022-12-29T15:02:50;18.50;73.80
53065;DHT22;38948;48.376;-4.312;2022-12-29T15:05:31;18.50;73.70
53065;DHT22;38948;48.376;-4.312;2022-12-29T15:07:58;18.50;74.00
53065;DHT22;38948;48.376;-4.312;2022-12-29T15:10:26;18.50;73.90
53065;DHT22;38948;48.376;-4.312;2022-12-29T15:13:03;18.50;73.80
53065;DHT22;38948;48.376;-4.312;2022-12-29T15:15:36;18.50;73.80
53065;DHT22;38948;48.376;-4.312;2022-12-29T15:18:14;18.50;73.80
53065;DHT22;38948;48.376;-4.312;2022-12-29T15:20:42;18.50;73.70
53065;DHT22;38948;48.376;-4.312;2022-12-29T15:23:12;18.50;73.70
53065;DHT22;38948;48.376;-4.312;2022-12-29T15:26:07;18.50;73.70
53065;DHT22;38948;48.376;-4.312;2022-12-29T15:28:42;18.50;73.70
53065;DHT22;38948;48.376;-4.312;2022-12-29T15:31:19;18.50;73.70
53065;DHT22;38948;48.376;-4.312;2022-12-29T15:33:48;18.50;73.50
53065;DHT22;38948;48.376;-4.312;2022-12-29T15:38:48;18.50;73.50
53065;DHT22;38948;48.376;-4.312;2022-12-29T15:44:10;18.50;73.40
53065;DHT22;38948;48.376;-4.312;2022-12-29T15:46:37;18.50;73.40
53065;DHT22;38948;48.376;-4.312;2022-12-29T15:49:08;18.50;73.40
53065;DHT22;38948;48.376;-4.312;2022-12-29T15:51:38;18.50;73.30
53065;DHT22;38948;48.376;-4.312;2022-12-29T15:54:05;18.40;73.30
53065;DHT22;38948;48.376;-4.312;2022-12-29T15:56:32;18.40;73.40
53065;DHT22;38948;48.376;-4.312;2022-12-29T15:58:59;18.40;73.30
53065;DHT22;38948;48.376;-4.312;2022-12-29T16:01:32;18.40;73.40
53065;DHT22;38948;48.376;-4.312;2022-12-29T16:04:06;18.40;73.30
53065;DHT22;38948;48.376;-4.312;2022-12-29T16:06:38;18.40;73.30
53065;DHT22;38948;48.376;-4.312;2022-12-29T16:09:14;18.40;73.30
53065;DHT22;38948;48.376;-4.312;2022-12-29T16:11:47;18.40;73.30
53065;DHT22;38948;48.376;-4.312;2022-12-29T16:14:21;18.40;73.30
53065;DHT22;38948;48.376;-4.312;2022-12-29T16:16:48;18.30;73.20
53065;DHT22;38948;48.376;-4.312;2022-12-29T16:19:35;18.30;73.40
53065;DHT22;38948;48.376;-4.312;2022-12-29T16:22:04;18.30;73.40
53065;DHT22;38948;48.376;-4.312;2022-12-29T16:24:39;18.30;73.30
53065;DHT22;38948;48.376;-4.312;2022-12-29T16:29:35;18.30;73.40
53065;DHT22;38948;48.376;-4.312;2022-12-29T16:32:02;18.30;73.40
53065;DHT22;38948;48.376;-4.312;2022-12-29T16:34:33;18.20;73.30
53065;DHT22;38948;48.376;-4.312;2022-12-29T16:37:01;18.20;73.40
53065;DHT22;38948;48.376;-4.312;2022-12-29T16:39:33;18.20;73.40
53065;DHT22;38948;48.376;-4.312;2022-12-29T16:42:00;18.20;73.30
53065;DHT22;38948;48.376;-4.312;2022-12-29T16:44:30;18.20;73.20
53065;DHT22;38948;48.376;-4.312;2022-12-29T16:49:40;18.20;73.30
53065;DHT22;38948;48.376;-4.312;2022-12-29T16:52:23;18.20;73.40
53065;DHT22;38948;48.376;-4.312;2022-12-29T16:54:55;18.20;73.20
53065;DHT22;38948;48.376;-4.312;2022-12-29T16:57:24;18.20;73.20
53065;DHT22;38948;48.376;-4.312;2022-12-29T16:59:52;18.10;73.30
53065;DHT22;38948;48.376;-4.312;2022-12-29T17:02:20;18.10;73.30
53065;DHT22;38948;48.376;-4.312;2022-12-29T17:04:48;18.10;73.40
53065;DHT22;38948;48.376;-4.312;2022-12-29T17:07:22;18.10;73.30
53065;DHT22;38948;48.376;-4.312;2022-12-29T17:09:48;18.10;73.40
53065;DHT22;38948;48.376;-4.312;2022-12-29T17:12:21;18.10;73.40
53065;DHT22;38948;48.376;-4.312;2022-12-29T17:14:56;18.10;73.30
53065;DHT22;38948;48.376;-4.312;2022-12-29T17:17:39;18.10;73.30
53065;DHT22;38948;48.376;-4.312;2022-12-29T17:22:39;18.10;73.30
53065;DHT22;38948;48.376;-4.312;2022-12-29T17:25:05;18.00;73.30
53065;DHT22;38948;48.376;-4.312;2022-12-29T17:30:13;18.10;73.30
53065;DHT22;38948;48.376;-4.312;2022-12-29T17:32:40;18.10;74.40
53065;DHT22;38948;48.376;-4.312;2022-12-29T17:35:16;18.10;73.80
53065;DHT22;38948;48.376;-4.312;2022-12-29T17:37:42;18.10;73.70
53065;DHT22;38948;48.376;-4.312;2022-12-29T17:40:20;18.10;74.30
53065;DHT22;38948;48.376;-4.312;2022-12-29T17:42:57;18.20;75.10
53065;DHT22;38948;48.376;-4.312;2022-12-29T17:45:29;18.20;75.30
53065;DHT22;38948;48.376;-4.312;2022-12-29T17:47:57;18.30;75.10
53065;DHT22;38948;48.376;-4.312;2022-12-29T17:50:28;18.30;75.10
53065;DHT22;38948;48.376;-4.312;2022-12-29T17:52:57;18.30;75.40
53065;DHT22;38948;48.376;-4.312;2022-12-29T17:55:24;18.30;75.60
53065;DHT22;38948;48.376;-4.312;2022-12-29T17:57:51;18.30;75.60
53065;DHT22;38948;48.376;-4.312;2022-12-29T18:00:26;18.40;75.50
53065;DHT22;38948;48.376;-4.312;2022-12-29T18:02:54;18.40;75.70
53065;DHT22;38948;48.376;-4.312;2022-12-29T18:05:25;18.40;76.10
53065;DHT22;38948;48.376;-4.312;2022-12-29T18:07:53;18.50;76.60
53065;DHT22;38948;48.376;-4.312;2022-12-29T18:10:21;18.50;76.90
53065;DHT22;38948;48.376;-4.312;2022-12-29T18:12:51;18.60;77.40
53065;DHT22;38948;48.376;-4.312;2022-12-29T18:15:23;18.60;77.60
53065;DHT22;38948;48.376;-4.312;2022-12-29T18:17:53;18.70;77.30
53065;DHT22;38948;48.376;-4.312;2022-12-29T18:20:23;18.70;77.20